Time;durP1;ratioP1;P1;durP2;ratioP2;P2;SDS_P1;SDS_P2;PMS_P1;PMS_P2;Temp;Humidity;BMP_temperature;BMP_pressure;BME280_temperature;BME280_humidity;BME280_pressure;Samples;Min_cycle;Max_cycle;Signal;HPM_P1;HPM_P2
2022/05/22 00:01:14;;;;;;;2.30;0.73;;;;;;;;;;5029920;28;20032;-79
2022/05/22 00:03:40;;;;;;;1.58;1.05;;;;;;;;;;5026594;28;20033;-79
2022/05/22 00:06:06;;;;;;;0.40;0.40;;;;;;;;;;5026231;28;20133;-79
2022/05/22 00:08:32;;;;;;;0.52;0.50;;;;;;;;;;5025082;28;20020;-79
2022/05/22 00:10:58;;;;;;;0.63;0.40;;;;;;;;;;5025012;28;20068;-79
2022/05/22 00:13:24;;;;;;;1.77;0.52;;;;;;;;;;5024958;28;20029;-78
2022/05/22 00:18:34;;;;;;;0.52;0.52;;;;;;;;;;5011269;28;20961;-80
2022/05/22 00:21:01;;;;;;;0.40;0.30;;;;;;;;;;5026504;28;20076;-79
2022/05/22 00:23:28;;;;;;;0.55;0.55;;;;;;;;;;5028861;28;20073;-80
2022/05/22 00:25:57;;;;;;;2.00;1.08;;;;;;;;;;5037287;28;20141;-80
2022/05/22 00:28:23;;;;;;;0.40;0.30;;;;;;;;;;5030732;28;20075;-80
2022/05/22 00:30:49;;;;;;;2.50;1.20;;;;;;;;;;5029270;28;20025;-80
2022/05/22 00:33:15;;;;;;;1.00;0.80;;;;;;;;;;5028032;28;20115;-80
2022/05/22 00:35:41;;;;;;;3.83;0.40;;;;;;;;;;5028740;28;20041;-80
2022/05/22 00:38:07;;;;;;;1.02;0.80;;;;;;;;;;5015563;28;20891;-80
2022/05/22 00:40:33;;;;;;;1.38;0.75;;;;;;;;;;5029775;28;20081;-79
2022/05/22 00:42:59;;;;;;;6.03;0.77;;;;;;;;;;5028580;28;20033;-80
2022/05/22 00:45:25;;;;;;;0.55;0.55;;;;;;;;;;5029481;28;20285;-80
2022/05/22 00:47:51;;;;;;;2.17;1.15;;;;;;;;;;5028878;28;20036;-80
2022/05/22 00:50:18;;;;;;;2.50;0.98;;;;;;;;;;5028378;28;20033;-80
2022/05/22 00:52:50;;;;;;;0.90;0.88;;;;;;;;;;5029872;28;20082;-79
2022/05/22 00:55:26;;;;;;;0.57;0.57;;;;;;;;;;5028463;28;20041;-80
2022/05/22 00:57:54;;;;;;;2.50;0.65;;;;;;;;;;5027461;28;21336;-80
2022/05/22 01:00:22;;;;;;;0.45;0.45;;;;;;;;;;5031169;28;20075;-79
2022/05/22 01:05:35;;;;;;;1.83;0.95;;;;;;;;;;5032626;28;20048;-80
2022/05/22 01:08:02;;;;;;;0.68;0.65;;;;;;;;;;5028984;28;20090;-80
2022/05/22 01:10:28;;;;;;;;;;;;;;;;;;5030079;28;20848;-80
2022/05/22 01:12:54;;;;;;;0.47;0.47;;;;;;;;;;5028529;28;19917;-79
2022/05/22 01:15:20;;;;;;;0.55;0.35;;;;;;;;;;5029645;28;20025;-79
2022/05/22 01:17:47;;;;;;;0.73;0.73;;;;;;;;;;5029234;28;20526;-80
2022/05/22 01:20:14;;;;;;;0.40;0.32;;;;;;;;;;5039485;28;20028;-79
2022/05/22 01:22:41;;;;;;;1.05;0.45;;;;;;;;;;5030558;28;20037;-79
2022/05/22 01:25:08;;;;;;;0.55;0.40;;;;;;;;;;5034895;28;20730;-79
2022/05/22 01:27:34;;;;;;;10.13;0.40;;;;;;;;;;5027928;28;20968;-79
2022/05/22 01:30:09;;;;;;;0.82;0.63;;;;;;;;;;5029031;28;20052;-80
2022/05/22 01:32:37;;;;;;;0.50;0.47;;;;;;;;;;5028413;28;20049;-79
2022/05/22 01:35:03;;;;;;;0.93;0.82;;;;;;;;;;5027748;28;20028;-79
2022/05/22 01:37:29;;;;;;;;;;;;;;;;;;5012880;28;20056;-80
2022/05/22 01:39:55;;;;;;;1.85;1.10;;;;;;;;;;5027306;28;19995;-81
2022/05/22 01:42:21;;;;;;;0.82;0.55;;;;;;;;;;5030745;28;20078;-78
2022/05/22 01:44:47;;;;;;;0.30;0.30;;;;;;;;;;5029527;28;20031;-79
2022/05/22 01:47:13;;;;;;;0.52;0.20;;;;;;;;;;5028378;28;20095;-78
2022/05/22 01:49:39;;;;;;;8.43;0.88;;;;;;;;;;5028163;28;20048;-78
2022/05/22 01:52:05;;;;;;;1.10;1.00;;;;;;;;;;5015114;28;20453;-78
2022/05/22 01:54:31;;;;;;;0.40;0.40;;;;;;;;;;5027095;28;20033;-78
2022/05/22 01:56:57;;;;;;;0.85;0.85;;;;;;;;;;5029435;28;20048;-78
2022/05/22 01:59:23;;;;;;;0.63;0.55;;;;;;;;;;5027312;28;20032;-78
2022/05/22 02:01:49;;;;;;;0.30;0.30;;;;;;;;;;5028754;28;20543;-79
2022/05/22 02:04:15;;;;;;;0.20;0.20;;;;;;;;;;5026626;28;20033;-80
2022/05/22 02:09:27;;;;;;;2.75;0.60;;;;;;;;;;5026438;28;20518;-80
2022/05/22 02:11:53;;;;;;;1.23;0.60;;;;;;;;;;5012963;28;20037;-80
2022/05/22 02:14:19;;;;;;;0.38;0.38;;;;;;;;;;5028085;28;20557;-79
2022/05/22 02:16:45;;;;;;;0.28;0.28;;;;;;;;;;5028214;28;20025;-78
2022/05/22 02:19:12;;;;;;;0.35;0.35;;;;;;;;;;5026767;28;20040;-78
2022/05/22 02:21:38;;;;;;;0.20;0.20;;;;;;;;;;5026823;28;20051;-78
2022/05/22 02:24:04;;;;;;;0.47;0.47;;;;;;;;;;5029348;28;20017;-78
2022/05/22 02:26:30;;;;;;;1.02;0.93;;;;;;;;;;5032896;28;20033;-78
2022/05/22 02:28:56;;;;;;;1.48;1.25;;;;;;;;;;5027419;28;20032;-79
2022/05/22 02:31:22;;;;;;;0.63;0.55;;;;;;;;;;5027271;28;20037;-76
2022/05/22 02:33:48;;;;;;;1.00;0.95;;;;;;;;;;5026343;28;20036;-77
2022/05/22 02:36:15;;;;;;;2.05;1.42;;;;;;;;;;5010825;28;20028;-77
2022/05/22 02:38:41;;;;;;;0.40;0.40;;;;;;;;;;5026423;28;20033;-77
2022/05/22 02:41:11;;;;;;;0.30;0.30;;;;;;;;;;5028205;28;20126;-76
2022/05/22 02:43:37;;;;;;;0.35;0.35;;;;;;;;;;5026823;28;20028;-77
2022/05/22 02:46:08;;;;;;;0.73;0.73;;;;;;;;;;5029556;28;20075;-77
2022/05/22 02:48:34;;;;;;;0.52;0.52;;;;;;;;;;5028240;28;20031;-77
2022/05/22 02:51:00;;;;;;;0.65;0.65;;;;;;;;;;5027242;28;20032;-77
2022/05/22 02:53:27;;;;;;;2.17;1.08;;;;;;;;;;5026835;28;20380;-77
2022/05/22 02:55:53;;;;;;;0.80;0.80;;;;;;;;;;5009959;28;20481;-77
2022/05/22 02:58:19;;;;;;;0.50;0.20;;;;;;;;;;5026974;28;20033;-76
2022/05/22 03:00:45;;;;;;;0.60;0.60;;;;;;;;;;5028149;28;20105;-77
2022/05/22 03:03:11;;;;;;;1.95;1.05;;;;;;;;;;5024620;28;20965;-77
2022/05/22 03:08:22;;;;;;;1.55;1.20;;;;;;;;;;5026223;28;20064;-77
2022/05/22 03:10:48;;;;;;;0.38;0.38;;;;;;;;;;5027941;28;20108;-77
2022/05/22 03:13:14;;;;;;;0.30;0.30;;;;;;;;;;5029520;28;20024;-77
2022/05/22 03:15:40;;;;;;;1.23;1.02;;;;;;;;;;5028005;28;20034;-77
2022/05/22 03:18:07;;;;;;;0.35;0.35;;;;;;;;;;5026503;28;20029;-77
2022/05/22 03:20:33;;;;;;;0.32;0.32;;;;;;;;;;5025197;28;20036;-77
2022/05/22 03:22:59;;;;;;;0.50;0.50;;;;;;;;;;5025924;28;20036;-77
2022/05/22 03:25:26;;;;;;;0.60;0.60;;;;;;;;;;5031367;28;20037;-76
2022/05/22 03:27:51;;;;;;;;;;;;;;;;;;5026993;28;20107;-79
2022/05/22 03:30:17;;;;;;;3.65;0.95;;;;;;;;;;5008256;28;20027;-79
2022/05/22 03:32:43;;;;;;;0.60;0.60;;;;;;;;;;5026211;28;20100;-79
2022/05/22 03:35:10;;;;;;;0.45;0.45;;;;;;;;;;5027397;28;20096;-79
2022/05/22 03:37:37;;;;;;;0.85;0.75;;;;;;;;;;5027541;28;20034;-79
2022/05/22 03:40:03;;;;;;;0.50;0.50;;;;;;;;;;5026697;28;20032;-79
2022/05/22 03:42:29;;;;;;;0.50;0.50;;;;;;;;;;5027019;28;20132;-79
2022/05/22 03:44:55;;;;;;;;;;;;;;;;;;5026527;28;20028;-80
2022/05/22 03:47:21;;;;;;;0.38;0.38;;;;;;;;;;5024709;28;19921;-77
2022/05/22 03:49:47;;;;;;;2.05;0.57;;;;;;;;;;5026726;28;20044;-78
2022/05/22 03:52:14;;;;;;;0.40;0.40;;;;;;;;;;5025599;28;20033;-80
2022/05/22 03:54:40;;;;;;;1.85;0.98;;;;;;;;;;5011325;28;20472;-80
2022/05/22 03:57:08;;;;;;;3.53;1.63;;;;;;;;;;5026837;28;20060;-80
2022/05/22 03:59:34;;;;;;;0.20;0.20;;;;;;;;;;5030264;28;20091;-81
2022/05/22 04:02:00;;;;;;;0.93;0.63;;;;;;;;;;5009536;28;20045;-81
2022/05/22 04:04:26;;;;;;;0.65;0.63;;;;;;;;;;5029371;28;20151;-81
2022/05/22 04:06:52;;;;;;;8.80;2.55;;;;;;;;;;5029970;28;20397;-80
2022/05/22 04:09:18;;;;;;;0.73;0.70;;;;;;;;;;5031074;28;20033;-80
2022/05/22 04:11:44;;;;;;;0.25;0.25;;;;;;;;;;5030620;28;20041;-79
2022/05/22 04:14:10;;;;;;;1.05;0.65;;;;;;;;;;5030721;28;20805;-78
2022/05/22 04:16:36;;;;;;;1.67;0.60;;;;;;;;;;5030686;28;20044;-78
2022/05/22 04:19:03;;;;;;;1.02;0.77;;;;;;;;;;5029358;28;20120;-78
2022/05/22 04:21:29;;;;;;;0.45;0.45;;;;;;;;;;5028657;28;20048;-78
2022/05/22 04:26:39;;;;;;;0.60;0.60;;;;;;;;;;5034229;28;20527;-79
2022/05/22 04:29:06;;;;;;;2.47;0.60;;;;;;;;;;5029227;28;20504;-78
2022/05/22 04:31:32;;;;;;;0.22;0.22;;;;;;;;;;5029617;28;20649;-78
2022/05/22 04:33:58;;;;;;;0.57;0.57;;;;;;;;;;5029729;28;20104;-78
2022/05/22 04:36:24;;;;;;;0.20;0.20;;;;;;;;;;5029077;28;20033;-83
2022/05/22 04:38:50;;;;;;;1.02;0.60;;;;;;;;;;5013266;28;20131;-84
2022/05/22 04:41:17;;;;;;;0.32;0.32;;;;;;;;;;5028720;28;20052;-83
2022/05/22 04:43:43;;;;;;;2.22;1.30;;;;;;;;;;5030299;28;20036;-83
2022/05/22 04:46:09;;;;;;;2.80;2.42;;;;;;;;;;5031091;28;20053;-83
2022/05/22 04:48:36;;;;;;;0.70;0.70;;;;;;;;;;5028792;28;20587;-85
2022/05/22 04:51:02;;;;;;;0.70;0.60;;;;;;;;;;5030649;28;20098;-85
2022/05/22 04:53:28;;;;;;;0.70;0.60;;;;;;;;;;5030779;28;20026;-85
2022/05/22 04:55:54;;;;;;;1.67;1.00;;;;;;;;;;5030674;28;20041;-84
2022/05/22 04:58:20;;;;;;;0.70;0.70;;;;;;;;;;5029337;28;20039;-85
2022/05/22 05:00:47;;;;;;;0.25;0.25;;;;;;;;;;5031165;28;20040;-89
2022/05/22 05:03:13;;;;;;;0.30;0.30;;;;;;;;;;5033395;28;20169;-88
2022/05/22 05:05:39;;;;;;;1.08;0.98;;;;;;;;;;5031336;28;20059;-82
2022/05/22 05:08:05;;;;;;;1.90;1.50;;;;;;;;;;5028538;28;20051;-83
2022/05/22 05:10:31;;;;;;;3.92;1.60;;;;;;;;;;5029569;28;20047;-82
2022/05/22 05:12:59;;;;;;;0.57;0.57;;;;;;;;;;5028645;28;20119;-83
2022/05/22 05:15:26;;;;;;;0.73;0.70;;;;;;;;;;5029456;28;20070;-83
2022/05/22 05:17:52;;;;;;;1.00;0.52;;;;;;;;;;5029624;28;20098;-86
2022/05/22 05:20:23;;;;;;;0.30;0.30;;;;;;;;;;5030938;28;20037;-87
2022/05/22 05:22:50;;;;;;;0.40;0.30;;;;;;;;;;5032489;28;20044;-87
2022/05/22 05:25:16;;;;;;;2.42;0.95;;;;;;;;;;5032549;28;20123;-77
2022/05/22 05:27:42;;;;;;;0.73;0.73;;;;;;;;;;5035239;28;20037;-77
2022/05/22 05:30:09;;;;;;;0.65;0.65;;;;;;;;;;5035688;28;20059;-77
2022/05/22 05:32:35;;;;;;;1.23;0.45;;;;;;;;;;5043434;28;20542;-77
2022/05/22 05:35:02;;;;;;;0.95;0.30;;;;;;;;;;5045361;28;20043;-77
2022/05/22 05:37:28;;;;;;;0.55;0.55;;;;;;;;;;5036399;28;20036;-77
2022/05/22 05:39:54;;;;;;;0.38;0.38;;;;;;;;;;5038525;28;20052;-76
2022/05/22 05:42:21;;;;;;;3.92;1.05;;;;;;;;;;5044249;28;20033;-77
2022/05/22 05:44:48;;;;;;;2.83;1.23;;;;;;;;;;5042449;28;20040;-79
2022/05/22 05:47:14;;;;;;;1.02;0.82;;;;;;;;;;5027690;28;20050;-78
2022/05/22 05:49:40;;;;;;;0.40;0.40;;;;;;;;;;5042513;28;20059;-79
2022/05/22 05:52:06;;;;;;;0.30;0.30;;;;;;;;;;5044297;28;20033;-79
2022/05/22 05:54:32;;;;;;;0.30;0.30;;;;;;;;;;5037687;28;20042;-79
2022/05/22 05:56:58;;;;;;;0.28;0.20;;;;;;;;;;5034153;28;20140;-79
2022/05/22 05:59:25;;;;;;;3.63;0.20;;;;;;;;;;5025695;28;20071;-79
2022/05/22 06:01:51;;;;;;;0.20;0.20;;;;;;;;;;5028940;28;20103;-79
2022/05/22 06:04:17;;;;;;;0.30;0.30;;;;;;;;;;5029099;28;20036;-80
2022/05/22 06:06:44;;;;;;;0.30;0.30;;;;;;;;;;5033884;28;20703;-79
2022/05/22 06:09:10;;;;;;;;;;;;;;;;;;5030080;28;20024;-79
2022/05/22 06:11:36;;;;;;;0.88;0.63;;;;;;;;;;5026099;28;19920;-78
2022/05/22 06:14:02;;;;;;;0.43;0.35;;;;;;;;;;5028050;28;20025;-78
2022/05/22 06:16:28;;;;;;;0.22;0.08;;;;;;;;;;5041158;28;20063;-79
2022/05/22 06:18:55;;;;;;;1.17;0.30;;;;;;;;;;5035659;28;20031;-79
2022/05/22 06:21:21;;;;;;;0.32;0.28;;;;;;;;;;5031317;28;20131;-85
2022/05/22 06:23:48;;;;;;;0.25;0.20;;;;;;;;;;5024980;28;20033;-80
2022/05/22 06:26:13;;;;;;;;;;;;;;;;;;5027247;28;20142;-80
2022/05/22 06:28:39;;;;;;;0.60;0.30;;;;;;;;;;5034728;28;20428;-79
2022/05/22 06:31:06;;;;;;;0.35;0.35;;;;;;;;;;5033996;28;20851;-79
2022/05/22 06:33:33;;;;;;;1.75;0.43;;;;;;;;;;5019004;28;20036;-80
2022/05/22 06:35:59;;;;;;;1.85;1.13;;;;;;;;;;5038051;28;20049;-86
2022/05/22 06:41:11;;;;;;;3.00;0.93;;;;;;;;;;5029422;28;20047;-82
2022/05/22 06:43:39;;;;;;;0.52;0.43;;;;;;;;;;5030079;28;20032;-79
2022/05/22 06:46:05;;;;;;;0.15;0.15;;;;;;;;;;5023063;28;20045;-79
2022/05/22 06:48:31;;;;;;;0.43;0.32;;;;;;;;;;5041917;28;20037;-79
2022/05/22 06:50:57;;;;;;;0.50;0.32;;;;;;;;;;5029386;28;20538;-80
2022/05/22 06:53:24;;;;;;;1.23;1.13;;;;;;;;;;5026482;28;20066;-80
2022/05/22 06:55:50;;;;;;;0.50;0.50;;;;;;;;;;5040553;28;20052;-80
2022/05/22 06:58:16;;;;;;;0.38;0.38;;;;;;;;;;5038818;28;20032;-80
2022/05/22 07:00:42;;;;;;;0.40;0.40;;;;;;;;;;5034637;28;20032;-80
2022/05/22 07:03:08;;;;;;;0.40;0.30;;;;;;;;;;5033140;28;20749;-80
2022/05/22 07:05:34;;;;;;;1.05;0.63;;;;;;;;;;5030556;28;20037;-80
2022/05/22 07:08:01;;;;;;;0.65;0.38;;;;;;;;;;5032907;28;20095;-80
2022/05/22 07:13:11;;;;;;;5.60;0.55;;;;;;;;;;5032959;28;20091;-80
2022/05/22 07:15:38;;;;;;;1.20;0.68;;;;;;;;;;5036966;28;20037;-80
2022/05/22 07:18:04;;;;;;;0.32;0.20;;;;;;;;;;5042348;28;20028;-79
2022/05/22 07:20:30;;;;;;;0.40;0.40;;;;;;;;;;5041774;28;20033;-81
2022/05/22 07:22:56;;;;;;;1.08;1.02;;;;;;;;;;5034236;28;20554;-79
2022/05/22 07:25:22;;;;;;;0.10;0.10;;;;;;;;;;5032733;28;20029;-79
2022/05/22 07:27:48;;;;;;;0.70;0.22;;;;;;;;;;5030916;28;20043;-79
2022/05/22 07:30:15;;;;;;;1.00;0.93;;;;;;;;;;5019276;28;20699;-79
2022/05/22 07:32:41;;;;;;;0.55;0.30;;;;;;;;;;5045053;28;20511;-79
2022/05/22 07:35:07;;;;;;;0.08;0.00;;;;;;;;;;5046685;28;20043;-79
2022/05/22 07:37:33;;;;;;;2.63;0.77;;;;;;;;;;5030001;28;20033;-78
2022/05/22 07:39:59;;;;;;;0.63;0.60;;;;;;;;;;5014535;28;20152;-79
2022/05/22 07:42:25;;;;;;;0.20;0.20;;;;;;;;;;5029990;28;20941;-78
2022/05/22 07:44:51;;;;;;;0.90;0.63;;;;;;;;;;5040665;28;20474;-78
2022/05/22 07:47:17;;;;;;;0.43;0.40;;;;;;;;;;5041892;28;20053;-80
2022/05/22 07:52:29;;;;;;;0.30;0.30;;;;;;;;;;5045083;28;20049;-79
2022/05/22 07:54:56;;;;;;;0.32;0.32;;;;;;;;;;5027646;28;20803;-80
2022/05/22 07:57:22;;;;;;;0.17;0.17;;;;;;;;;;5043561;28;20578;-79
2022/05/22 07:59:48;;;;;;;0.60;0.60;;;;;;;;;;5045480;28;20029;-79
2022/05/22 08:02:15;;;;;;;0.98;0.35;;;;;;;;;;5046342;28;20051;-79
2022/05/22 08:04:42;;;;;;;6.57;0.57;;;;;;;;;;5027478;28;20033;-79
2022/05/22 08:07:08;;;;;;;0.77;0.63;;;;;;;;;;5044579;28;20058;-79
2022/05/22 08:09:34;;;;;;;;;;;;;;;;;;5020431;28;20021;-77
2022/05/22 08:12:00;;;;;;;0.40;0.40;;;;;;;;;;5045161;28;19962;-80
2022/05/22 08:14:26;;;;;;;0.13;0.13;;;;;;;;;;5013230;28;20038;-83
2022/05/22 08:16:54;;;;;;;1.35;0.30;;;;;;;;;;5046843;28;20120;-82
2022/05/22 08:19:21;;;;;;;5.35;1.45;;;;;;;;;;5036555;28;20044;-79
2022/05/22 08:21:47;;;;;;;0.13;0.13;;;;;;;;;;5033602;28;20090;-82
2022/05/22 08:24:13;;;;;;;0.65;0.45;;;;;;;;;;5035626;28;20033;-81
2022/05/22 08:26:39;;;;;;;0.75;0.73;;;;;;;;;;5042433;28;20103;-81
2022/05/22 08:29:05;;;;;;;0.17;0.17;;;;;;;;;;5044784;28;20583;-82
2022/05/22 08:31:31;;;;;;;0.68;0.43;;;;;;;;;;5033896;28;20052;-81
2022/05/22 08:33:57;;;;;;;2.28;1.38;;;;;;;;;;5043696;28;20024;-85
2022/05/22 08:36:24;;;;;;;;;;;;;;;;;;5044349;28;20594;-81
2022/05/22 08:38:50;;;;;;;0.20;0.10;;;;;;;;;;5024184;28;19956;-83
2022/05/22 08:41:16;;;;;;;;;;;;;;;;;;5035770;28;20630;-83
2022/05/22 08:43:55;;;;;;;1.73;1.00;;;;;;;;;;5027084;28;19927;-83
2022/05/22 08:46:23;;;;;;;0.60;0.45;;;;;;;;;;5042293;28;20098;-83
2022/05/22 08:48:53;;;;;;;0.30;0.20;;;;;;;;;;5040871;28;20060;-82
2022/05/22 08:51:30;;;;;;;0.20;0.20;;;;;;;;;;5038790;28;20041;-83
2022/05/22 08:53:59;;;;;;;0.43;0.38;;;;;;;;;;5038745;28;20186;-82
2022/05/22 08:59:23;;;;;;;1.27;0.73;;;;;;;;;;5029963;28;20044;-84
2022/05/22 09:01:56;;;;;;;0.10;0.10;;;;;;;;;;5035694;28;20079;-82
2022/05/22 09:04:30;;;;;;;0.40;0.40;;;;;;;;;;5030698;28;20057;-82
2022/05/22 09:06:56;;;;;;;0.63;0.43;;;;;;;;;;5033750;28;20094;-82
2022/05/22 09:09:24;;;;;;;3.13;1.02;;;;;;;;;;5042923;28;20078;-82
2022/05/22 09:11:53;;;;;;;1.40;0.43;;;;;;;;;;5032345;28;20122;-82
2022/05/22 09:14:40;;;;;;;1.35;1.05;;;;;;;;;;5022313;28;20044;-82
2022/05/22 09:17:19;;;;;;;0.20;0.10;;;;;;;;;;5031343;28;20091;-82
2022/05/22 09:19:47;;;;;;;3.17;1.08;;;;;;;;;;5036468;28;20029;-82
2022/05/22 09:22:21;;;;;;;0.10;0.10;;;;;;;;;;5037030;28;20450;-82
2022/05/22 09:25:07;;;;;;;0.17;0.17;;;;;;;;;;5038457;28;20033;-85
2022/05/22 09:27:41;;;;;;;2.10;1.20;;;;;;;;;;5039730;28;20090;-83
2022/05/22 09:30:13;;;;;;;0.20;0.20;;;;;;;;;;5036971;28;20794;-83
2022/05/22 09:32:51;;;;;;;0.20;0.20;;;;;;;;;;5034968;28;20136;-81
2022/05/22 09:35:21;;;;;;;0.10;0.10;;;;;;;;;;5040027;28;20021;-83
2022/05/22 09:37:50;;;;;;;0.10;0.10;;;;;;;;;;5042697;28;20024;-82
2022/05/22 09:40:16;;;;;;;0.38;0.22;;;;;;;;;;5041788;28;20033;-82
2022/05/22 09:42:55;;;;;;;0.20;0.20;;;;;;;;;;5042523;28;20413;-82
2022/05/22 09:45:27;;;;;;;5.75;1.15;;;;;;;;;;5034780;28;20040;-83
2022/05/22 09:48:08;;;;;;;0.47;0.47;;;;;;;;;;5037995;28;20493;-82
2022/05/22 09:50:36;;;;;;;1.35;0.70;;;;;;;;;;5042327;28;20771;-82
2022/05/22 09:53:12;;;;;;;0.75;0.73;;;;;;;;;;5042144;28;20094;-82
2022/05/22 09:55:44;;;;;;;0.30;0.20;;;;;;;;;;5040521;28;20104;-82
2022/05/22 09:58:13;;;;;;;0.73;0.50;;;;;;;;;;5036677;28;20105;-83
2022/05/22 10:00:58;;;;;;;0.30;0.30;;;;;;;;;;5030064;28;20032;-83
2022/05/22 10:03:43;;;;;;;0.68;0.32;;;;;;;;;;5024965;28;20028;-82
2022/05/22 10:06:12;;;;;;;0.40;0.40;;;;;;;;;;5036588;28;20029;-83
2022/05/22 10:08:49;;;;;;;0.40;0.40;;;;;;;;;;5034293;28;20031;-82
2022/05/22 10:11:26;;;;;;;0.20;0.20;;;;;;;;;;5037834;28;20036;-83
2022/05/22 10:13:55;;;;;;;0.22;0.20;;;;;;;;;;5034651;28;20022;-83
2022/05/22 10:16:36;;;;;;;0.15;0.15;;;;;;;;;;5020695;28;20031;-83
2022/05/22 10:19:25;;;;;;;4.57;0.57;;;;;;;;;;5033761;28;20033;-83
2022/05/22 10:21:54;;;;;;;0.20;0.20;;;;;;;;;;5032362;28;20156;-83
2022/05/22 10:24:20;;;;;;;0.17;0.17;;;;;;;;;;5034374;28;20076;-80
2022/05/22 10:26:59;;;;;;;0.13;0.13;;;;;;;;;;5039621;28;20033;-80
2022/05/22 10:29:25;;;;;;;0.25;0.25;;;;;;;;;;5034481;28;20072;-80
2022/05/22 10:32:20;;;;;;;0.20;0.10;;;;;;;;;;5042067;28;20028;-80
2022/05/22 10:34:50;;;;;;;0.75;0.47;;;;;;;;;;5016181;28;20045;-80
2022/05/22 10:37:36;;;;;;;3.30;0.95;;;;;;;;;;5018278;28;20526;-80
2022/05/22 10:40:04;;;;;;;0.73;0.55;;;;;;;;;;5040550;28;20029;-80
2022/05/22 10:42:45;;;;;;;2.50;0.70;;;;;;;;;;5042356;28;20812;-80
2022/05/22 10:45:14;;;;;;;0.65;0.63;;;;;;;;;;5041133;28;20025;-80
2022/05/22 10:47:40;;;;;;;1.17;0.95;;;;;;;;;;5040866;28;20033;-80
2022/05/22 10:50:06;;;;;;;;;;;;;;;;;;5043684;28;20044;-80
2022/05/22 10:52:34;;;;;;;0.95;0.45;;;;;;;;;;5040962;28;19916;-80
2022/05/22 10:55:00;;;;;;;0.63;0.38;;;;;;;;;;5041578;28;20389;-80
2022/05/22 10:57:26;;;;;;;;;;;;;;;;;;5027329;28;20032;-80
2022/05/22 10:59:53;;;;;;;0.50;0.47;;;;;;;;;;5040708;28;19923;-80
2022/05/22 11:02:23;;;;;;;0.45;0.28;;;;;;;;;;5037505;28;20051;-80
2022/05/22 11:04:49;;;;;;;0.65;0.57;;;;;;;;;;5041952;28;20033;-80
2022/05/22 11:07:28;;;;;;;6.50;0.82;;;;;;;;;;5041670;28;20764;-80
2022/05/22 11:09:55;;;;;;;5.05;1.35;;;;;;;;;;5042525;28;20044;-80
2022/05/22 11:12:22;;;;;;;1.65;0.85;;;;;;;;;;5024220;28;20633;-80
2022/05/22 11:14:48;;;;;;;3.45;1.02;;;;;;;;;;5042425;28;20037;-80
2022/05/22 11:17:16;;;;;;;0.10;0.10;;;;;;;;;;5043177;28;20028;-80
2022/05/22 11:19:43;;;;;;;1.45;0.63;;;;;;;;;;5019963;28;20037;-80
2022/05/22 11:22:15;;;;;;;0.38;0.38;;;;;;;;;;5042365;28;20050;-80
2022/05/22 11:24:41;;;;;;;0.10;0.10;;;;;;;;;;5034241;28;20061;-80
2022/05/22 11:27:07;;;;;;;10.98;1.40;;;;;;;;;;5042388;28;20033;-80
2022/05/22 11:29:53;;;;;;;0.35;0.35;;;;;;;;;;5041540;28;20032;-80
2022/05/22 11:32:22;;;;;;;0.30;0.30;;;;;;;;;;4938874;29;20769;-80
2022/05/22 11:35:03;;;;;;;0.30;0.30;;;;;;;;;;4927002;29;20137;-80
2022/05/22 11:37:35;;;;;;;0.95;0.90;;;;;;;;;;4941135;29;20043;-80
2022/05/22 11:40:20;;;;;;;0.40;0.40;;;;;;;;;;4941492;29;20259;-80
2022/05/22 11:42:46;;;;;;;1.67;1.00;;;;;;;;;;4942305;29;20055;-85
2022/05/22 11:45:12;;;;;;;;;;;;;;;;;;4938572;29;20172;-84
2022/05/22 11:47:44;;;;;;;0.55;0.55;;;;;;;;;;4940848;29;19922;-84
2022/05/22 11:50:10;;;;;;;10.43;2.30;;;;;;;;;;4942692;29;20071;-84
2022/05/22 11:52:55;;;;;;;0.15;0.15;;;;;;;;;;4941917;29;20122;-84
2022/05/22 11:55:22;;;;;;;0.13;0.13;;;;;;;;;;4942191;29;20442;-83
2022/05/22 11:57:54;;;;;;;0.20;0.20;;;;;;;;;;4937218;29;20306;-84
2022/05/22 12:00:43;;;;;;;0.88;0.70;;;;;;;;;;4938383;29;20102;-85
2022/05/22 12:03:48;;;;;;;0.30;0.30;;;;;;;;;;4931590;29;20126;-85
2022/05/22 12:06:32;;;;;;;0.57;0.52;;;;;;;;;;4886074;29;20033;-84
2022/05/22 12:08:58;;;;;;;0.45;0.30;;;;;;;;;;4896797;28;20924;-84
2022/05/22 12:11:25;;;;;;;6.20;0.50;;;;;;;;;;4961504;28;20696;-85
2022/05/22 12:13:59;;;;;;;1.50;1.15;;;;;;;;;;4934511;28;20039;-84
2022/05/22 12:16:31;;;;;;;0.43;0.43;;;;;;;;;;4942481;28;20199;-85
2022/05/22 12:19:00;;;;;;;5.15;0.98;;;;;;;;;;4954377;28;20041;-84
2022/05/22 12:21:29;;;;;;;0.40;0.40;;;;;;;;;;4960616;28;20092;-84
2022/05/22 12:23:59;;;;;;;0.20;0.20;;;;;;;;;;4964616;28;20808;-85
2022/05/22 12:26:26;;;;;;;2.92;1.23;;;;;;;;;;4962498;28;20091;-84
2022/05/22 12:29:25;;;;;;;10.85;1.00;;;;;;;;;;4960615;28;20074;-84
2022/05/22 12:31:58;;;;;;;1.23;0.93;;;;;;;;;;4959776;28;20779;-85
2022/05/22 12:34:35;;;;;;;0.00;0.00;;;;;;;;;;4960892;28;20035;-85
2022/05/22 12:37:03;;;;;;;0.10;0.10;;;;;;;;;;4993947;28;20045;-85
2022/05/22 12:39:32;;;;;;;1.08;0.43;;;;;;;;;;5045069;28;20036;-84
2022/05/22 12:42:11;;;;;;;0.20;0.20;;;;;;;;;;5044706;28;20040;-85
2022/05/22 12:44:37;;;;;;;2.65;0.93;;;;;;;;;;5045232;28;20113;-85
2022/05/22 12:47:04;;;;;;;;;;;;;;;;;;5045977;28;20056;-84
2022/05/22 12:49:32;;;;;;;1.33;0.55;;;;;;;;;;5044688;28;19967;-84
2022/05/22 12:52:13;;;;;;;0.50;0.50;;;;;;;;;;5045088;28;20044;-85
2022/05/22 12:54:39;;;;;;;0.17;0.17;;;;;;;;;;5044841;28;20420;-84
2022/05/22 12:57:12;;;;;;;2.10;0.75;;;;;;;;;;5044966;28;20090;-84
2022/05/22 12:59:49;;;;;;;0.17;0.17;;;;;;;;;;5041400;28;20029;-84
2022/05/22 13:02:25;;;;;;;4.30;1.20;;;;;;;;;;5041053;28;20055;-84
2022/05/22 13:04:54;;;;;;;0.45;0.45;;;;;;;;;;5044994;28;20025;-84
2022/05/22 13:07:34;;;;;;;0.43;0.43;;;;;;;;;;5026696;28;20028;-84
2022/05/22 13:10:11;;;;;;;1.42;0.40;;;;;;;;;;5044626;28;20063;-84
2022/05/22 13:12:39;;;;;;;0.22;0.13;;;;;;;;;;5044345;28;20040;-85
2022/05/22 13:15:05;;;;;;;0.47;0.47;;;;;;;;;;5044631;28;20107;-84
2022/05/22 13:17:40;;;;;;;2.20;0.50;;;;;;;;;;5044822;28;20124;-85
2022/05/22 13:20:22;;;;;;;0.65;0.65;;;;;;;;;;5043924;28;20036;-84
2022/05/22 13:22:48;;;;;;;0.20;0.20;;;;;;;;;;5043255;28;20421;-84
2022/05/22 13:25:27;;;;;;;0.80;0.80;;;;;;;;;;5043965;28;20492;-84
2022/05/22 13:27:54;;;;;;;1.63;1.30;;;;;;;;;;5026416;28;20451;-84
2022/05/22 13:30:30;;;;;;;0.40;0.30;;;;;;;;;;5043283;28;20029;-84
2022/05/22 13:33:00;;;;;;;0.30;0.30;;;;;;;;;;5044541;28;20500;-84
2022/05/22 13:35:31;;;;;;;0.30;0.30;;;;;;;;;;5044075;28;20401;-84
2022/05/22 13:37:57;;;;;;;1.35;0.68;;;;;;;;;;5045280;28;20082;-84
2022/05/22 13:40:26;;;;;;;0.93;0.60;;;;;;;;;;5038822;28;20042;-84
2022/05/22 13:43:07;;;;;;;0.82;0.40;;;;;;;;;;5033502;28;20044;-84
2022/05/22 13:45:36;;;;;;;1.85;0.25;;;;;;;;;;5043222;28;20580;-84
2022/05/22 13:48:11;;;;;;;0.20;0.20;;;;;;;;;;5043805;28;20509;-84
2022/05/22 13:53:32;;;;;;;0.70;0.68;;;;;;;;;;5025757;28;20924;-84
2022/05/22 13:55:58;;;;;;;0.20;0.20;;;;;;;;;;5041978;28;20597;-84
2022/05/22 13:58:24;;;;;;;;;;;;;;;;;;5043994;28;20032;-84
2022/05/22 14:00:51;;;;;;;0.15;0.15;;;;;;;;;;5043222;28;19920;-84
2022/05/22 14:03:47;;;;;;;0.60;0.60;;;;;;;;;;5043525;28;20055;-84
2022/05/22 14:06:15;;;;;;;0.50;0.50;;;;;;;;;;5024777;28;20101;-84
2022/05/22 14:08:42;;;;;;;0.60;0.57;;;;;;;;;;5043746;28;20059;-84
2022/05/22 14:11:14;;;;;;;5.28;0.95;;;;;;;;;;5026464;28;20577;-84
2022/05/22 14:13:55;;;;;;;0.57;0.57;;;;;;;;;;5043067;28;20037;-85
2022/05/22 14:16:25;;;;;;;0.40;0.40;;;;;;;;;;5043106;28;20068;-84
2022/05/22 14:19:02;;;;;;;0.38;0.30;;;;;;;;;;5043511;28;20536;-84
2022/05/22 14:21:31;;;;;;;2.38;0.55;;;;;;;;;;5043229;28;20059;-84
2022/05/22 14:26:47;;;;;;;0.30;0.30;;;;;;;;;;5043922;28;20048;-84
2022/05/22 14:29:14;;;;;;;0.30;0.20;;;;;;;;;;5022040;28;20037;-84
2022/05/22 14:31:49;;;;;;;0.40;0.30;;;;;;;;;;5042750;28;20043;-84
2022/05/22 14:34:19;;;;;;;1.38;1.10;;;;;;;;;;5042995;28;20029;-84
2022/05/22 14:36:53;;;;;;;0.57;0.40;;;;;;;;;;5008733;28;20080;-84
2022/05/22 14:39:19;;;;;;;0.17;0.15;;;;;;;;;;5042678;28;20029;-84
2022/05/22 14:41:45;;;;;;;;;;;;;;;;;;5033778;28;20112;-84
2022/05/22 14:44:13;;;;;;;0.95;0.95;;;;;;;;;;5043701;28;20550;-84
2022/05/22 14:46:39;;;;;;;0.30;0.30;;;;;;;;;;5020747;28;20056;-84
2022/05/22 14:49:28;;;;;;;1.52;0.65;;;;;;;;;;5043300;28;20025;-84
2022/05/22 14:52:00;;;;;;;3.83;0.40;;;;;;;;;;5042975;28;20115;-84
2022/05/22 14:54:31;;;;;;;0.22;0.15;;;;;;;;;;5042757;28;20036;-84
2022/05/22 14:57:08;;;;;;;1.33;0.93;;;;;;;;;;5042893;28;20032;-84
2022/05/22 14:59:40;;;;;;;0.03;0.03;;;;;;;;;;5042779;28;20021;-84
2022/05/22 15:02:10;;;;;;;1.65;1.15;;;;;;;;;;5043219;28;20108;-84
2022/05/22 15:04:36;;;;;;;0.65;0.55;;;;;;;;;;5042609;28;20032;-84
2022/05/22 15:07:18;;;;;;;0.50;0.50;;;;;;;;;;5042942;28;20051;-84
2022/05/22 15:09:51;;;;;;;0.28;0.28;;;;;;;;;;5042011;28;20128;-84
2022/05/22 15:12:22;;;;;;;0.00;0.00;;;;;;;;;;5043158;28;20493;-84
2022/05/22 15:14:50;;;;;;;5.57;1.00;;;;;;;;;;5027148;28;20032;-84
2022/05/22 15:17:34;;;;;;;0.50;0.50;;;;;;;;;;5037621;28;20037;-86
2022/05/22 15:20:13;;;;;;;0.17;0.17;;;;;;;;;;5033307;28;20029;-87
2022/05/22 15:25:33;;;;;;;14.27;2.23;;;;;;;;;;5035284;28;20114;-84
2022/05/22 15:27:59;;;;;;;0.38;0.38;;;;;;;;;;5035266;28;20971;-84
2022/05/22 15:30:30;;;;;;;2.22;0.85;;;;;;;;;;5030987;28;20052;-85
2022/05/22 15:33:23;;;;;;;0.10;0.10;;;;;;;;;;5036375;28;20068;-86